PAMK

Details ICAO PAMK (SMK)
Name ST MICHAEL
Region USA (Alaska)
Timezone America/Nome (UTC-9.0)
Plans Departing 3
Arriving 6
Stats Elevation 93 ft / 28 m (AMSL)
Location 63.490000° -162.110000°
Runways 1
Magnetic Variation 10.560° E
Sunrise 2020-11-25 19:45:03 UTC / 2020-11-25 10:45:03 Local
Sunset 2020-11-26 01:29:16 UTC / 2020-11-25 16:29:16 Local
Advertisement - Login to hide

Runways

ID Width Length Bearing (true/mag) Surface Threshold Overrun Markings Lighting
02 75 ft / 23 m 3,991 ft / 1,216 m 32.85° / 22.30° GRAVEL 0 ft / 0 m 299 ft / 91 m VISUAL EDGE THRESHOLD
20 75 ft / 23 m 3,991 ft / 1,216 m 212.87° / 202.31° GRAVEL 0 ft / 0 m 299 ft / 91 m VISUAL EDGE THRESHOLD

Map

Weather


0- 5 10 15 20 25 30 35+ Temperature / °C

Clouds and Precipitation
Forecast for 2020-11-25 12:00 UTC. Updated 4 hours ago

Ground ~20,000 ft ~40,000 ft Winds

METAR

PAMK 251256Z AUTO 11018G25KT 10SM OVC070 01/M02 A2870 RMK AO2 SLP720 T00111017 FZRANO

TAF

Not found

Frequencies

Recorded 119.27 MHz ASOS
Unicom 122.80 MHz CTAF/UNICOM
Warning: Do not use this data for real-world aviation or navigation. No guarantee of current accuracy is given.